createdAt,value
2023-02-13T00:00:43.944Z,95.50
2023-02-13T00:01:43.890Z,95.61
2023-02-13T00:02:43.887Z,95.34
2023-02-13T00:03:44.085Z,95.65
2023-02-13T00:04:43.968Z,96.06
2023-02-13T00:05:43.947Z,95.71
2023-02-13T00:06:43.880Z,96.06
2023-02-13T00:07:43.869Z,95.86
2023-02-13T00:08:43.838Z,96.06
2023-02-13T00:09:43.860Z,96.11
2023-02-13T00:10:43.853Z,96.11
2023-02-13T00:11:43.831Z,96.11
2023-02-13T00:12:43.927Z,96.01
2023-02-13T00:13:43.785Z,96.62
2023-02-13T00:14:43.775Z,97.04
2023-02-13T00:15:43.762Z,97.25
2023-02-13T00:16:43.803Z,97.14
2023-02-13T00:17:43.693Z,96.98
2023-02-13T00:18:43.785Z,97.19
2023-02-13T00:19:43.867Z,97.19
2023-02-13T00:20:43.754Z,97.60
2023-02-13T00:21:43.698Z,97.81
2023-02-13T00:22:43.725Z,97.71
2023-02-13T00:23:43.716Z,97.91
2023-02-13T00:24:43.857Z,97.66
2023-02-13T00:25:43.621Z,97.86
2023-02-13T00:26:43.726Z,97.60
2023-02-13T00:27:43.735Z,98.01
2023-02-13T00:28:43.721Z,98.28
2023-02-13T00:29:43.613Z,97.97
2023-02-13T00:30:43.684Z,97.60
2023-02-13T00:31:43.864Z,97.71
2023-02-13T00:32:43.545Z,97.45
2023-02-13T00:33:44.591Z,97.50
2023-02-13T00:34:43.607Z,97.60
2023-02-13T00:35:43.809Z,97.81
2023-02-13T00:36:43.568Z,97.50
2023-02-13T00:37:43.642Z,97.81
2023-02-13T00:38:43.557Z,97.66
2023-02-13T00:39:43.543Z,97.45
2023-02-13T00:40:43.509Z,97.34
2023-02-13T00:41:43.512Z,97.25
2023-02-13T00:42:44.331Z,97.04
2023-02-13T00:43:43.483Z,97.08
2023-02-13T00:44:43.534Z,97.39
2023-02-13T00:45:43.461Z,97.71
2023-02-13T00:46:43.486Z,97.39
2023-02-13T00:47:43.576Z,97.29
2023-02-13T00:48:43.444Z,97.29
2023-02-13T00:49:43.433Z,97.39
2023-02-13T00:50:43.450Z,97.60
2023-02-13T00:51:43.366Z,98.01
2023-02-13T00:52:43.430Z,98.01
2023-02-13T00:53:43.485Z,97.91
2023-02-13T00:54:43.480Z,97.81
2023-02-13T00:55:43.351Z,97.91
2023-02-13T00:56:43.402Z,98.01
2023-02-13T00:57:43.344Z,97.91
2023-02-13T00:58:43.376Z,97.71
2023-02-13T00:59:43.433Z,97.71
2023-02-13T01:00:43.332Z,97.91
2023-02-13T01:01:43.411Z,97.91
2023-02-13T01:02:43.321Z,97.91
2023-02-13T01:03:43.350Z,97.81
2023-02-13T01:04:43.354Z,97.91
2023-02-13T01:05:43.269Z,97.97
2023-02-13T01:06:43.246Z,97.71
2023-02-13T01:07:43.200Z,97.25
2023-02-13T01:08:43.180Z,97.34
2023-02-13T01:09:43.176Z,97.25
2023-02-13T01:10:44.027Z,97.04
2023-02-13T01:11:43.184Z,97.04
2023-02-13T01:12:43.169Z,97.04
2023-02-13T01:13:43.180Z,97.25
2023-02-13T01:14:43.147Z,96.52
2023-02-13T01:15:43.211Z,96.77
2023-02-13T01:16:43.129Z,96.52
2023-02-13T01:17:43.135Z,96.21
2023-02-13T01:18:43.122Z,96.42
2023-02-13T01:19:43.172Z,96.52
2023-02-13T01:20:43.270Z,96.42
2023-02-13T01:21:43.231Z,96.26
2023-02-13T01:22:43.113Z,96.15
2023-02-13T01:23:43.069Z,95.64
2023-02-13T01:24:43.099Z,95.95
2023-02-13T01:25:43.071Z,96.56
2023-02-13T01:26:43.032Z,96.05
2023-02-13T01:27:43.159Z,96.30
2023-02-13T01:28:43.138Z,96.61
2023-02-13T01:29:43.126Z,96.61
2023-02-13T01:30:43.101Z,97.13
2023-02-13T01:31:43.183Z,96.41
2023-02-13T01:32:42.942Z,97.02
2023-02-13T01:33:43.935Z,96.82
2023-02-13T01:34:42.964Z,96.82
2023-02-13T01:35:42.967Z,97.17
2023-02-13T01:36:42.936Z,97.59
2023-02-13T01:37:42.904Z,97.38
2023-02-13T01:38:42.950Z,97.07
2023-02-13T01:39:42.913Z,97.38
2023-02-13T01:40:43.480Z,96.86
2023-02-13T01:41:42.864Z,97.49
2023-02-13T01:42:42.933Z,97.59
2023-02-13T01:43:42.878Z,97.49
2023-02-13T01:44:42.831Z,97.69
2023-02-13T01:45:42.846Z,97.79
2023-02-13T01:46:42.982Z,97.69
2023-02-13T01:47:45.120Z,97.49
2023-02-13T01:48:42.838Z,97.49
2023-02-13T01:49:42.904Z,97.59
2023-02-13T01:50:42.906Z,97.49
2023-02-13T01:51:42.996Z,97.59
2023-02-13T01:52:42.815Z,97.69
2023-02-13T01:53:42.832Z,97.49
2023-02-13T01:54:42.883Z,97.28
2023-02-13T01:55:42.798Z,97.38
2023-02-13T01:56:42.836Z,97.33
2023-02-13T01:57:42.817Z,97.54
2023-02-13T01:58:42.778Z,96.97
2023-02-13T01:59:42.865Z,97.07
2023-02-13T02:00:43.701Z,96.82
2023-02-13T02:01:42.743Z,96.86
2023-02-13T02:02:42.702Z,97.07
2023-02-13T02:03:42.720Z,96.55
2023-02-13T02:04:42.723Z,96.86
2023-02-13T02:05:42.723Z,97.28
2023-02-13T02:06:42.660Z,96.76
2023-02-13T02:07:42.640Z,96.86
2023-02-13T02:08:42.620Z,96.14
2023-02-13T02:09:42.591Z,96.03
2023-02-13T02:10:42.707Z,96.66
2023-02-13T02:11:42.661Z,96.14
2023-02-13T02:12:42.667Z,96.76
2023-02-13T02:13:42.577Z,96.66
2023-02-13T02:14:42.570Z,96.76
2023-02-13T02:15:42.648Z,96.66
2023-02-13T02:16:42.590Z,96.76
2023-02-13T02:17:42.522Z,96.55
2023-02-13T02:18:42.525Z,96.55
2023-02-13T02:19:42.514Z,96.45
2023-02-13T02:20:42.605Z,96.41
2023-02-13T02:21:42.518Z,96.30
2023-02-13T02:22:42.474Z,96.45
2023-02-13T02:23:42.503Z,96.14
2023-02-13T02:24:42.610Z,96.66
2023-02-13T02:25:42.525Z,96.14
2023-02-13T02:26:42.506Z,96.76
2023-02-13T02:27:42.451Z,96.97
2023-02-13T02:28:42.497Z,97.22
2023-02-13T02:29:42.456Z,97.49
2023-02-13T02:30:42.451Z,97.17
2023-02-13T02:31:42.487Z,97.59
2023-02-13T02:32:42.375Z,97.38
2023-02-13T02:33:42.412Z,97.49
2023-02-13T02:34:42.384Z,97.49
2023-02-13T02:35:42.676Z,97.59
2023-02-13T02:36:42.393Z,97.59
2023-02-13T02:37:42.317Z,97.63
2023-02-13T02:38:42.257Z,98.00
2023-02-13T02:39:42.310Z,97.69
2023-02-13T02:40:42.502Z,97.79
2023-02-13T02:41:42.358Z,97.59
2023-02-13T02:42:42.306Z,97.49
2023-02-13T02:43:42.322Z,97.53
2023-02-13T02:44:42.365Z,97.53
2023-02-13T02:45:42.373Z,97.38
2023-02-13T02:46:42.351Z,97.17
2023-02-13T02:47:42.325Z,97.69
2023-02-13T02:48:42.349Z,97.07
2023-02-13T02:49:42.304Z,97.38
2023-02-13T02:50:42.244Z,97.42
2023-02-13T02:51:42.251Z,97.22
2023-02-13T02:52:42.160Z,97.22
2023-02-13T02:53:42.194Z,97.22
2023-02-13T02:54:42.147Z,97.47
2023-02-13T02:55:42.155Z,97.36
2023-02-13T02:56:42.245Z,97.42
2023-02-13T02:57:42.102Z,97.16
2023-02-13T02:58:42.148Z,97.36
2023-02-13T02:59:42.102Z,96.80
2023-02-13T03:00:42.174Z,97.36
2023-02-13T03:01:42.083Z,97.47
2023-02-13T03:02:42.051Z,97.57
2023-02-13T03:03:42.109Z,97.57
2023-02-13T03:04:42.033Z,97.47
2023-02-13T03:05:42.073Z,97.53
2023-02-13T03:06:42.025Z,97.67
2023-02-13T03:07:42.002Z,97.99
2023-02-13T03:08:42.005Z,97.99
2023-02-13T03:09:41.975Z,97.99
2023-02-13T03:10:41.987Z,98.09
2023-02-13T03:11:41.967Z,97.99
2023-02-13T03:12:42.937Z,97.88
2023-02-13T03:13:42.006Z,98.09
2023-02-13T03:14:42.063Z,98.19
2023-02-13T03:15:41.935Z,98.30
2023-02-13T03:16:42.070Z,98.09
2023-02-13T03:17:41.914Z,98.13
2023-02-13T03:18:41.929Z,98.09
2023-02-13T03:19:42.931Z,97.78
2023-02-13T03:20:41.903Z,98.03
2023-02-13T03:21:41.894Z,98.09
2023-02-13T03:22:41.862Z,98.24
2023-02-13T03:23:41.871Z,97.99
2023-02-13T03:24:41.877Z,97.93
2023-02-13T03:25:41.855Z,97.62
2023-02-13T03:26:41.870Z,97.31
2023-02-13T03:27:41.835Z,97.83
2023-02-13T03:28:41.878Z,97.36
2023-02-13T03:29:42.966Z,97.16
2023-02-13T03:30:42.861Z,97.67
2023-02-13T03:31:41.842Z,97.36
2023-02-13T03:32:41.767Z,97.47
2023-02-13T03:33:41.739Z,97.10
2023-02-13T03:34:41.785Z,97.06
2023-02-13T03:35:41.764Z,97.16
2023-02-13T03:36:41.739Z,97.16
2023-02-13T03:37:41.754Z,96.91
2023-02-13T03:38:41.840Z,96.95
2023-02-13T03:39:41.713Z,96.44
2023-02-13T03:40:41.847Z,96.44
2023-02-13T03:41:41.794Z,96.64
2023-02-13T03:42:41.739Z,96.54
2023-02-13T03:43:41.756Z,96.54
2023-02-13T03:44:41.829Z,96.54
2023-02-13T03:45:41.753Z,96.33
2023-02-13T03:46:41.725Z,96.33
2023-02-13T03:47:41.758Z,96.64
2023-02-13T03:48:41.703Z,96.95
2023-02-13T03:49:41.744Z,96.54
2023-02-13T03:50:41.696Z,96.23
2023-02-13T03:51:41.696Z,96.54
2023-02-13T03:52:41.573Z,96.39
2023-02-13T03:53:41.566Z,96.75
2023-02-13T03:54:41.688Z,96.59
2023-02-13T03:55:41.588Z,96.54
2023-02-13T03:56:41.698Z,96.29
2023-02-13T03:57:41.580Z,96.19
2023-02-13T03:58:41.660Z,96.02
2023-02-13T03:59:41.503Z,96.39
2023-02-13T04:00:41.534Z,96.49
2023-02-13T04:01:41.509Z,96.08
2023-02-13T04:02:41.530Z,96.49
2023-02-13T04:03:41.615Z,96.19
2023-02-13T04:04:41.438Z,95.98
2023-02-13T04:05:41.596Z,95.87
2023-02-13T04:06:41.445Z,95.67
2023-02-13T04:07:41.435Z,95.87
2023-02-13T04:08:41.428Z,95.62
2023-02-13T04:09:41.410Z,95.83
2023-02-13T04:10:41.483Z,95.56
2023-02-13T04:11:41.389Z,95.56
2023-02-13T04:12:42.326Z,95.67
2023-02-13T04:13:41.372Z,95.87
2023-02-13T04:14:41.388Z,95.94
2023-02-13T04:15:42.355Z,95.62
2023-02-13T04:16:41.361Z,95.67
2023-02-13T04:17:41.365Z,95.62
2023-02-13T04:18:41.308Z,95.73
2023-02-13T04:19:41.330Z,95.56
2023-02-13T04:20:41.344Z,95.52
2023-02-13T04:21:41.318Z,95.67
2023-02-13T04:22:41.337Z,95.42
2023-02-13T04:23:41.298Z,95.46
2023-02-13T04:24:41.463Z,95.62
2023-02-13T04:25:41.301Z,96.08
2023-02-13T04:26:41.294Z,95.87
2023-02-13T04:27:41.275Z,95.77
2023-02-13T04:28:41.368Z,95.81
2023-02-13T04:29:41.273Z,95.56
2023-02-13T04:30:41.332Z,95.77
2023-02-13T04:31:42.076Z,96.23
2023-02-13T04:32:41.321Z,96.44
2023-02-13T04:33:41.286Z,96.29
2023-02-13T04:34:41.343Z,96.19
2023-02-13T04:35:41.353Z,96.39
2023-02-13T04:36:41.253Z,96.39
2023-02-13T04:37:41.308Z,96.19
2023-02-13T04:38:42.031Z,96.12
2023-02-13T04:39:41.143Z,96.64
2023-02-13T04:40:41.189Z,96.49
2023-02-13T04:41:41.170Z,96.70
2023-02-13T04:42:41.141Z,96.80
2023-02-13T04:43:41.175Z,96.39
2023-02-13T04:44:41.096Z,96.19
2023-02-13T04:45:41.161Z,96.29
2023-02-13T04:46:41.111Z,96.23
2023-02-13T04:47:41.900Z,96.02
2023-02-13T04:48:41.041Z,96.33
2023-02-13T04:49:41.389Z,96.54
2023-02-13T04:50:41.042Z,96.39
2023-02-13T04:51:41.102Z,96.49
2023-02-13T04:52:41.123Z,96.39
2023-02-13T04:53:41.031Z,96.39
2023-02-13T04:54:40.985Z,96.49
2023-02-13T04:55:41.040Z,96.39
2023-02-13T04:56:41.052Z,96.49
2023-02-13T04:57:40.938Z,96.29
2023-02-13T04:58:41.045Z,96.19
2023-02-13T04:59:41.071Z,96.23
2023-02-13T05:00:40.938Z,96.02
2023-02-13T05:01:41.057Z,96.39
2023-02-13T05:02:42.014Z,96.70
2023-02-13T05:03:40.913Z,96.39
2023-02-13T05:04:40.985Z,96.55
2023-02-13T05:05:40.912Z,95.87
2023-02-13T05:06:40.960Z,96.03
2023-02-13T05:07:40.837Z,96.34
2023-02-13T05:08:40.821Z,96.24
2023-02-13T05:09:41.729Z,96.29
2023-02-13T05:10:41.830Z,95.73
2023-02-13T05:11:40.838Z,95.83
2023-02-13T05:12:40.810Z,96.29
2023-02-13T05:13:40.803Z,96.24
2023-02-13T05:14:40.783Z,96.24
2023-02-13T05:15:40.796Z,96.14
2023-02-13T05:16:40.801Z,95.94
2023-02-13T05:17:40.767Z,95.83
2023-02-13T05:18:40.739Z,95.42
2023-02-13T05:19:40.749Z,95.77
2023-02-13T05:20:41.748Z,95.87
2023-02-13T05:21:40.774Z,95.77
2023-02-13T05:22:40.696Z,95.77
2023-02-13T05:23:40.721Z,96.29
2023-02-13T05:24:40.716Z,96.34
2023-02-13T05:25:40.700Z,96.19
2023-02-13T05:26:41.267Z,96.24
2023-02-13T05:27:40.658Z,96.14
2023-02-13T05:28:41.421Z,95.31
2023-02-13T05:29:40.645Z,95.52
2023-02-13T05:30:40.635Z,95.83
2023-02-13T05:31:40.744Z,95.73
2023-02-13T05:32:40.686Z,95.77
2023-02-13T05:33:40.802Z,95.73
2023-02-13T05:34:40.598Z,96.19
2023-02-13T05:35:40.585Z,95.73
2023-02-13T05:36:40.650Z,96.19
2023-02-13T05:37:40.612Z,96.29
2023-02-13T05:38:40.731Z,95.98
2023-02-13T05:39:40.541Z,96.91
2023-02-13T05:40:40.525Z,96.44
2023-02-13T05:41:40.545Z,96.95
2023-02-13T05:42:41.287Z,96.64
2023-02-13T05:43:40.466Z,97.01
2023-02-13T05:44:40.423Z,97.47
2023-02-13T05:45:40.537Z,97.26
2023-02-13T05:46:40.584Z,97.47
2023-02-13T05:47:40.513Z,97.36
2023-02-13T05:48:40.446Z,97.26
2023-02-13T05:49:40.440Z,97.26
2023-02-13T05:50:40.421Z,97.26
2023-02-13T05:51:40.406Z,97.42
2023-02-13T05:52:40.559Z,97.36
2023-02-13T05:53:40.407Z,97.36
2023-02-13T05:54:41.874Z,97.36
2023-02-13T05:55:40.436Z,97.36
2023-02-13T05:56:40.395Z,97.26
2023-02-13T05:57:40.323Z,97.36
2023-02-13T05:58:40.346Z,97.47
2023-02-13T05:59:40.391Z,96.75
2023-02-13T06:00:40.384Z,96.85
2023-02-13T06:01:40.360Z,96.23
2023-02-13T06:02:40.357Z,96.75
2023-02-13T06:03:40.350Z,96.64
2023-02-13T06:04:40.288Z,96.33
2023-02-13T06:05:40.403Z,96.29
2023-02-13T06:06:40.336Z,96.44
2023-02-13T06:07:40.213Z,96.44
2023-02-13T06:08:40.277Z,96.64
2023-02-13T06:09:40.287Z,96.64
2023-02-13T06:10:40.289Z,96.64
2023-02-13T06:11:40.207Z,96.59
2023-02-13T06:12:40.233Z,96.39
2023-02-13T06:13:40.232Z,96.33
2023-02-13T06:14:40.344Z,96.54
2023-02-13T06:15:40.972Z,96.75
2023-02-13T06:16:40.164Z,97.16
2023-02-13T06:17:40.233Z,96.44
2023-02-13T06:18:40.145Z,96.64
2023-02-13T06:32:37.177Z,97.06
2023-02-13T06:33:37.224Z,97.36
2023-02-13T06:34:37.177Z,97.26
2023-02-13T06:35:38.458Z,97.16
2023-02-13T06:36:38.423Z,97.36
2023-02-13T06:37:38.510Z,97.26
2023-02-13T06:38:38.332Z,97.47
2023-02-13T06:39:38.296Z,97.47
2023-02-13T06:40:38.342Z,97.01
2023-02-13T06:41:38.289Z,96.95
2023-02-13T06:42:38.242Z,96.49
2023-02-13T06:43:40.001Z,96.49
2023-02-13T06:44:39.270Z,96.80
2023-02-13T06:45:38.299Z,96.70
2023-02-13T06:46:38.332Z,96.85
2023-02-13T06:47:38.399Z,96.54
2023-02-13T06:48:38.260Z,96.59
2023-02-13T06:49:38.186Z,96.33
2023-02-13T06:50:38.909Z,96.80
2023-02-13T06:51:38.242Z,96.19
2023-02-13T06:52:38.526Z,96.29
2023-02-13T06:53:38.226Z,96.23
2023-02-13T06:54:47.216Z,96.49
2023-02-13T06:55:39.142Z,96.29
2023-02-13T06:56:38.117Z,96.08
2023-02-13T06:57:38.392Z,96.33
2023-02-13T06:58:38.150Z,96.12
2023-02-13T06:59:38.077Z,96.33
2023-02-13T07:00:38.184Z,96.19
2023-02-13T07:01:38.131Z,96.23
2023-02-13T07:02:38.133Z,96.19
2023-02-13T07:03:38.109Z,96.29
2023-02-13T07:04:38.056Z,95.56
2023-02-13T07:06:04.449Z,95.77
2023-02-13T07:06:38.994Z,95.77
2023-02-13T07:07:38.079Z,95.87
2023-02-13T07:08:38.030Z,95.87
2023-02-13T07:09:37.984Z,95.77
2023-02-13T07:10:37.984Z,95.87
2023-02-13T07:11:38.007Z,95.87
2023-02-13T07:12:37.991Z,95.87
2023-02-13T07:13:38.050Z,95.87
2023-02-13T07:14:37.902Z,95.67
2023-02-13T07:15:37.991Z,95.92
2023-02-13T07:16:37.919Z,95.77
2023-02-13T07:17:37.922Z,95.92
2023-02-13T07:18:38.707Z,95.87
2023-02-13T07:19:37.871Z,95.87
2023-02-13T07:20:37.920Z,95.67
2023-02-13T07:21:37.883Z,95.77
2023-02-13T07:22:38.817Z,95.67
2023-02-13T07:23:38.427Z,95.56
2023-02-13T07:24:37.862Z,95.94
2023-02-13T07:25:37.846Z,95.52
2023-02-13T07:26:37.843Z,95.52
2023-02-13T07:27:38.011Z,95.94
2023-02-13T07:28:37.929Z,95.42
2023-02-13T07:29:37.841Z,95.52
2023-02-13T07:30:37.755Z,95.21
2023-02-13T07:31:37.841Z,94.90
2023-02-13T07:32:37.811Z,95.62
2023-02-13T07:33:37.774Z,94.65
2023-02-13T07:34:42.646Z,94.59
2023-02-13T07:35:38.778Z,94.54
2023-02-13T07:36:37.965Z,94.54
2023-02-13T07:37:37.790Z,94.34
2023-02-13T07:38:37.850Z,94.23
2023-02-13T07:39:37.859Z,94.54
2023-02-13T07:40:37.847Z,93.93
2023-02-13T07:41:37.749Z,94.03
2023-02-13T07:42:37.690Z,94.13
2023-02-13T07:43:37.721Z,94.13
2023-02-13T07:44:37.652Z,93.62
2023-02-13T07:45:37.634Z,93.82
2023-02-13T07:46:37.703Z,93.62
2023-02-13T07:47:37.682Z,93.93
2023-02-13T07:48:37.623Z,93.30
2023-02-13T07:49:37.622Z,93.62
2023-02-13T07:50:38.475Z,93.62
2023-02-13T07:51:37.607Z,93.51
2023-02-13T07:52:37.941Z,93.72
2023-02-13T07:53:37.642Z,93.57
2023-02-13T07:54:37.661Z,93.57
2023-02-13T07:55:37.623Z,92.95
2023-02-13T07:56:37.794Z,93.26
2023-02-13T07:57:38.507Z,93.37
2023-02-13T07:58:48.083Z,93.26
2023-02-13T07:59:38.766Z,92.85
2023-02-13T08:00:37.747Z,93.01
2023-02-13T08:01:37.847Z,92.54
2023-02-13T08:02:37.827Z,92.95
2023-02-13T08:03:38.050Z,92.70
2023-02-13T08:04:37.772Z,91.88
2023-02-13T08:05:37.441Z,92.14
2023-02-13T08:06:37.609Z,91.94
2023-02-13T08:07:37.623Z,91.98
2023-02-13T08:08:38.656Z,92.08
2023-02-13T08:09:39.477Z,91.88
2023-02-13T08:10:37.440Z,91.82
2023-02-13T08:11:37.565Z,92.13
2023-02-13T08:12:37.500Z,92.70
2023-02-13T08:13:37.601Z,92.29
2023-02-13T08:14:37.687Z,92.40
2023-02-13T08:15:37.409Z,91.94
2023-02-13T08:16:38.074Z,91.94
2023-02-13T08:17:37.369Z,91.36
2023-02-13T08:18:37.367Z,91.26
2023-02-13T08:19:37.359Z,92.19
2023-02-13T08:20:37.354Z,91.88
2023-02-13T08:21:37.360Z,92.08
2023-02-13T08:22:37.393Z,92.08
2023-02-13T08:23:37.529Z,91.16
2023-02-13T08:24:37.327Z,91.98
2023-02-13T08:25:37.446Z,92.19
2023-02-13T08:26:37.460Z,92.29
2023-02-13T08:27:37.390Z,91.56
2023-02-13T08:28:37.300Z,92.25
2023-02-13T08:29:37.280Z,92.19
2023-02-13T08:30:37.291Z,91.56
2023-02-13T08:31:37.294Z,91.67
2023-02-13T08:32:52.103Z,91.67
2023-02-13T08:33:39.289Z,92.08
2023-02-13T08:34:37.247Z,91.11
2023-02-13T08:35:37.178Z,91.63
2023-02-13T08:36:37.147Z,91.26
2023-02-13T08:37:37.194Z,91.22
2023-02-13T08:38:37.132Z,91.11
2023-02-13T08:39:38.231Z,90.59
2023-02-13T08:40:37.110Z,90.66
2023-02-13T08:41:37.275Z,90.59
2023-02-13T08:42:37.117Z,91.07
2023-02-13T08:43:37.073Z,90.04
2023-02-13T08:44:37.170Z,89.98
2023-02-13T08:45:37.036Z,89.56
2023-02-13T08:46:37.066Z,89.77
2023-02-13T08:47:37.130Z,89.25
2023-02-13T08:48:37.047Z,89.25
2023-02-13T08:49:37.140Z,89.46
2023-02-13T08:50:37.514Z,89.46
2023-02-13T08:51:37.096Z,89.56
2023-02-13T08:52:37.006Z,89.83
2023-02-13T08:53:37.140Z,90.14
2023-02-13T08:54:37.052Z,89.36
2023-02-13T08:55:37.006Z,88.74
2023-02-13T08:56:36.929Z,88.84
2023-02-13T08:57:36.969Z,89.05
2023-02-13T08:58:36.943Z,89.05
2023-02-13T08:59:36.934Z,89.25
2023-02-13T09:00:37.118Z,89.11
2023-02-13T09:01:36.908Z,89.25
2023-02-13T09:02:36.977Z,88.49
2023-02-13T09:03:36.935Z,87.98
2023-02-13T09:04:36.850Z,87.77
2023-02-13T09:05:36.892Z,88.08
2023-02-13T09:06:36.940Z,87.56
2023-02-13T09:07:36.847Z,87.35
2023-02-13T09:08:36.848Z,88.18
2023-02-13T09:09:36.833Z,87.73
2023-02-13T09:10:36.874Z,87.52
2023-02-13T09:11:36.834Z,86.90
2023-02-13T09:12:37.393Z,86.18
2023-02-13T09:13:36.769Z,86.80
2023-02-13T09:14:36.895Z,87.93
2023-02-13T09:15:36.718Z,87.83
2023-02-13T09:16:36.817Z,87.90
2023-02-13T09:17:36.767Z,88.20
2023-02-13T09:18:36.732Z,86.45
2023-02-13T09:19:36.810Z,86.15
2023-02-13T09:20:36.700Z,86.55
2023-02-13T09:21:36.762Z,86.55
2023-02-13T09:22:36.734Z,87.03
2023-02-13T09:23:36.661Z,87.03
2023-02-13T09:24:36.654Z,86.10
2023-02-13T09:25:36.678Z,85.96
2023-02-13T09:26:36.658Z,84.97
2023-02-13T09:27:36.623Z,84.52
2023-02-13T09:28:36.652Z,84.97
2023-02-13T09:29:36.570Z,84.25
2023-02-13T09:30:36.730Z,84.25
2023-02-13T09:31:36.662Z,84.87
2023-02-13T09:32:36.633Z,84.93
2023-02-13T09:33:36.605Z,84.14
2023-02-13T09:34:36.639Z,84.62
2023-02-13T09:35:36.756Z,84.72
2023-02-13T09:36:36.513Z,84.89
2023-02-13T09:37:36.550Z,85.30
2023-02-13T09:38:36.510Z,84.95
2023-02-13T09:39:36.496Z,84.95
2023-02-13T09:40:36.520Z,84.54
2023-02-13T09:41:36.498Z,84.54
2023-02-13T09:42:38.071Z,83.41
2023-02-13T09:43:36.491Z,84.09
2023-02-13T09:44:36.459Z,83.78
2023-02-13T09:45:36.433Z,83.27
2023-02-13T09:46:36.615Z,82.45
2023-02-13T09:47:36.447Z,83.83
2023-02-13T09:48:36.444Z,85.16
2023-02-13T09:49:36.476Z,86.08
2023-02-13T09:50:36.421Z,84.95
2023-02-13T09:51:36.527Z,84.50
2023-02-13T09:52:36.398Z,84.20
2023-02-13T09:53:36.352Z,83.78
2023-02-13T09:54:36.414Z,83.48
2023-02-13T09:55:36.338Z,83.48
2023-02-13T09:56:36.322Z,83.44
2023-02-13T09:57:36.339Z,82.41
2023-02-13T09:58:36.353Z,82.76
2023-02-13T09:59:36.361Z,82.31
2023-02-13T10:00:36.344Z,81.69
2023-02-13T10:01:36.337Z,82.00
2023-02-13T10:02:36.324Z,82.45
2023-02-13T10:03:36.399Z,83.37
2023-02-13T10:04:36.361Z,83.44
2023-02-13T10:05:36.286Z,82.31
2023-02-13T10:06:36.201Z,82.82
2023-02-13T10:07:36.264Z,82.76
2023-02-13T10:08:36.260Z,82.65
2023-02-13T10:09:36.203Z,83.68
2023-02-13T10:10:36.320Z,83.33
2023-02-13T10:11:36.160Z,82.76
2023-02-13T10:12:36.196Z,82.24
2023-02-13T10:13:36.237Z,82.65
2023-02-13T10:14:36.320Z,82.45
2023-02-13T10:15:36.204Z,83.37
2023-02-13T10:16:36.110Z,83.03
2023-02-13T10:17:36.148Z,82.62
2023-02-13T10:18:36.119Z,82.10
2023-02-13T10:19:36.153Z,82.78
2023-02-13T10:20:36.135Z,82.27
2023-02-13T10:21:36.160Z,82.68
2023-02-13T10:22:36.151Z,81.55
2023-02-13T10:23:36.094Z,81.79
2023-02-13T10:24:36.086Z,82.06
2023-02-13T10:25:36.039Z,81.86
2023-02-13T10:26:36.027Z,81.76
2023-02-13T10:27:36.051Z,81.65
2023-02-13T10:28:36.124Z,81.55
2023-02-13T10:29:35.987Z,81.45
2023-02-13T10:30:35.993Z,81.14
2023-02-13T10:31:36.084Z,80.21
2023-02-13T10:32:36.002Z,81.04
2023-02-13T10:33:36.063Z,81.96
2023-02-13T10:34:35.959Z,82.47
2023-02-13T10:35:35.993Z,82.57
2023-02-13T10:36:35.928Z,82.64
2023-02-13T10:37:35.980Z,82.75
2023-02-13T10:38:36.015Z,82.64
2023-02-13T10:39:35.938Z,81.88
2023-02-13T10:40:36.535Z,80.24
2023-02-13T10:41:35.942Z,80.07
2023-02-13T10:42:36.605Z,81.00
2023-02-13T10:43:36.888Z,80.42
2023-02-13T10:44:35.871Z,81.82
2023-02-13T10:45:35.925Z,81.78
2023-02-13T10:46:35.951Z,80.07
2023-02-13T10:47:35.857Z,81.37
2023-02-13T10:48:35.842Z,80.14
2023-02-13T10:49:35.823Z,80.65
2023-02-13T10:50:35.875Z,79.59
2023-02-13T10:51:35.810Z,79.69
2023-02-13T10:55:09.305Z,78.77
2023-02-13T10:56:09.694Z,78.83
2023-02-13T10:57:10.798Z,78.83
2023-02-13T10:58:10.530Z,78.83
2023-02-13T10:59:10.570Z,79.55
2023-02-13T11:00:10.528Z,78.53
2023-02-13T11:01:10.468Z,80.17
2023-02-13T11:02:10.435Z,79.49
2023-02-13T11:03:10.518Z,80.10
2023-02-13T11:04:10.652Z,78.53
2023-02-13T11:07:25.495Z,78.63
2023-02-13T11:08:25.585Z,77.71
2023-02-13T11:09:26.765Z,78.12
2023-02-13T11:10:26.854Z,78.49
2023-02-13T11:11:26.780Z,79.14
2023-02-13T11:14:40.819Z,78.39
2023-02-13T11:15:40.749Z,77.36
2023-02-13T11:16:40.734Z,77.77
2023-02-13T11:18:18.523Z,77.33
2023-02-13T11:19:14.601Z,77.53
2023-02-13T11:19:41.890Z,76.81
2023-02-13T11:24:23.235Z,78.15
2023-02-13T11:25:23.246Z,77.87
2023-02-13T11:26:23.327Z,77.23
2023-02-13T11:27:59.040Z,76.85
2023-02-13T11:28:24.629Z,77.73
2023-02-13T11:29:56.911Z,77.23
2023-02-13T11:33:05.731Z,76.81
2023-02-13T11:34:05.743Z,77.23
2023-02-13T11:35:05.812Z,77.33
2023-02-13T11:36:05.759Z,77.23
2023-02-13T11:37:13.481Z,77.73
2023-02-13T11:38:07.086Z,76.78
2023-02-13T11:39:06.893Z,75.79
2023-02-13T11:40:06.905Z,77.73
2023-02-13T11:45:25.201Z,74.73
2023-02-13T11:47:33.439Z,71.50
2023-02-13T11:50:22.369Z,65.94
2023-02-13T11:51:22.513Z,63.65
2023-02-13T11:52:29.876Z,61.94
2023-02-13T11:57:45.365Z,54.41
2023-02-13T11:58:45.084Z,52.49
2023-02-13T12:00:18.571Z,53.98
2023-02-13T12:01:18.698Z,54.46
2023-02-13T12:01:46.825Z,53.30
2023-02-13T12:03:20.200Z,53.72
2023-02-13T12:04:18.653Z,55.62
2023-02-13T12:04:46.661Z,54.46
2023-02-13T12:05:46.166Z,53.25
2023-02-13T12:06:46.160Z,55.69
2023-02-13T12:10:44.043Z,50.78
2023-02-13T12:11:44.261Z,49.05
2023-02-13T12:12:45.296Z,49.53
2023-02-13T12:13:45.172Z,48.72
2023-02-13T12:14:45.081Z,48.02
2023-02-13T12:15:45.087Z,48.32
2023-02-13T12:19:20.792Z,49.22
2023-02-13T12:20:29.464Z,48.10
2023-02-13T12:22:10.565Z,46.17
2023-02-13T12:22:55.011Z,47.30
2023-02-13T12:23:22.601Z,46.75
2023-02-13T12:24:21.936Z,47.03
2023-02-13T12:25:54.542Z,46.62
2023-02-13T12:26:22.512Z,45.25
2023-02-13T12:27:54.490Z,45.17
2023-02-13T12:28:22.139Z,45.79
2023-02-13T12:33:30.702Z,46.72
2023-02-13T12:34:30.704Z,47.16
2023-02-13T12:35:30.772Z,47.74
2023-02-13T12:36:39.946Z,50.10
2023-02-13T12:37:30.847Z,48.58
2023-02-13T12:38:32.295Z,49.35
2023-02-13T12:39:32.717Z,49.52
2023-02-13T12:41:04.458Z,48.37
2023-02-13T12:41:32.286Z,46.41
2023-02-13T12:43:05.173Z,47.82
2023-02-13T12:43:32.274Z,47.42
2023-02-13T12:44:32.876Z,46.37
2023-02-13T12:45:31.845Z,46.27
2023-02-13T12:47:13.305Z,45.14
2023-02-13T12:47:32.614Z,44.12
2023-02-13T12:48:33.667Z,45.30
2023-02-13T12:49:32.636Z,43.80
2023-02-13T12:50:33.044Z,43.70
2023-02-13T12:51:31.815Z,43.68
2023-02-13T12:52:31.855Z,43.68
2023-02-13T12:53:31.891Z,43.38
2023-02-13T12:54:31.918Z,43.16
2023-02-13T12:55:31.780Z,41.63
2023-02-13T12:56:31.705Z,42.07
2023-02-13T13:01:56.816Z,43.76
2023-02-13T13:02:56.910Z,42.76
2023-02-13T13:04:06.783Z,42.68
2023-02-13T13:05:05.172Z,44.02
2023-02-13T13:06:11.865Z,43.82
2023-02-13T13:06:59.231Z,44.80
2023-02-13T13:08:30.347Z,43.48
2023-02-13T13:08:58.048Z,43.68
2023-02-13T13:09:57.961Z,44.40
2023-02-13T13:10:58.131Z,44.79
2023-02-13T13:12:30.603Z,46.64
2023-02-13T13:13:30.547Z,45.91
2023-02-13T13:13:59.456Z,45.89
2023-02-13T13:14:58.601Z,46.47
2023-02-13T13:15:58.420Z,45.26
2023-02-13T13:16:58.037Z,45.18
2023-02-13T13:18:30.317Z,45.31
2023-02-13T13:18:58.080Z,45.25
2023-02-13T13:20:30.407Z,46.88
2023-02-13T13:21:30.332Z,47.61
2023-02-13T13:22:30.436Z,49.07
2023-02-13T13:22:58.406Z,49.19
2023-02-13T13:24:31.235Z,49.24
2023-02-13T13:24:58.052Z,51.40
2023-02-13T13:26:30.327Z,54.38
2023-02-13T13:27:31.573Z,53.40
2023-02-13T13:27:58.528Z,55.85
2023-02-13T13:28:57.821Z,54.69
2023-02-13T13:30:30.573Z,55.77
2023-02-13T13:30:58.611Z,55.62
2023-02-13T13:31:59.228Z,54.76
2023-02-13T13:35:07.465Z,49.47
2023-02-13T13:36:08.119Z,47.39
2023-02-13T13:38:35.518Z,46.15
2023-02-13T13:39:44.568Z,45.12
2023-02-13T13:40:44.172Z,43.77
2023-02-13T13:45:38.433Z,42.25
2023-02-13T13:46:46.187Z,42.83
2023-02-13T13:49:24.056Z,41.33
2023-02-13T13:50:32.055Z,41.74
2023-02-13T13:53:09.219Z,44.04
2023-02-13T13:54:19.565Z,43.90
2023-02-13T13:55:09.333Z,42.38
2023-02-13T13:57:58.095Z,41.74